createdAt,value
2023-09-27T00:00:37.968Z,15.27
2023-09-27T00:01:40.057Z,15.25
2023-09-27T00:02:42.702Z,15.26
2023-09-27T00:03:44.802Z,15.27
2023-09-27T00:04:46.843Z,15.27
2023-09-27T00:05:48.985Z,15.28
2023-09-27T00:06:51.477Z,15.27
2023-09-27T00:07:53.574Z,15.26
2023-09-27T00:08:55.720Z,15.25
2023-09-27T00:09:58.352Z,15.24
2023-09-27T00:11:00.385Z,15.23
2023-09-27T00:12:07.123Z,15.25
2023-09-27T00:13:10.647Z,15.20
2023-09-27T00:14:13.384Z,15.19
2023-09-27T00:15:15.522Z,15.21
2023-09-27T00:16:17.577Z,15.20
2023-09-27T00:17:19.655Z,15.20
2023-09-27T00:18:21.719Z,15.18
2023-09-27T00:19:23.784Z,15.16
2023-09-27T00:20:26.105Z,15.15
2023-09-27T00:21:28.548Z,15.18
2023-09-27T00:22:30.539Z,15.17
2023-09-27T00:23:32.579Z,15.17
2023-09-27T00:24:35.314Z,15.18
2023-09-27T00:25:37.312Z,15.20
2023-09-27T00:26:39.308Z,15.20
2023-09-27T00:27:41.668Z,15.18
2023-09-27T00:28:43.662Z,15.13
2023-09-27T00:29:46.948Z,15.15
2023-09-27T00:30:51.845Z,15.18
2023-09-27T00:31:53.961Z,15.15
2023-09-27T00:32:56.163Z,15.16
2023-09-27T00:33:58.192Z,15.16
2023-09-27T00:35:00.677Z,15.15
2023-09-27T00:36:03.327Z,15.15
2023-09-27T00:37:05.580Z,15.17
2023-09-27T00:38:07.793Z,15.15
2023-09-27T00:39:09.878Z,15.12
2023-09-27T00:40:14.231Z,15.13
2023-09-27T00:41:16.284Z,15.09
2023-09-27T00:42:18.347Z,15.08
2023-09-27T00:43:34.693Z,15.04
2023-09-27T00:44:36.764Z,15.03
2023-09-27T00:45:38.744Z,15.04
2023-09-27T00:46:40.859Z,15.06
2023-09-27T00:47:42.846Z,15.01
2023-09-27T00:48:44.832Z,15.02
2023-09-27T00:49:46.845Z,15.03
2023-09-27T00:50:48.885Z,14.98
2023-09-27T00:51:50.927Z,14.99
2023-09-27T00:52:52.983Z,14.95
2023-09-27T00:53:55.764Z,14.94
2023-09-27T00:54:57.969Z,14.90
2023-09-27T00:56:00.046Z,14.90
2023-09-27T00:57:02.914Z,14.91
2023-09-27T00:58:04.936Z,14.88
2023-09-27T00:59:07.077Z,14.89
2023-09-27T01:00:12.073Z,14.83
2023-09-27T01:01:14.462Z,14.81
2023-09-27T01:02:19.549Z,14.79
2023-09-27T01:03:21.612Z,14.76
2023-09-27T01:04:24.169Z,14.78
2023-09-27T01:05:26.295Z,14.75
2023-09-27T01:06:28.374Z,14.73
2023-09-27T01:07:30.399Z,14.73
2023-09-27T01:08:32.459Z,14.75
2023-09-27T01:09:34.481Z,14.76
2023-09-27T01:10:36.779Z,14.76
2023-09-27T01:11:39.172Z,14.77
2023-09-27T01:12:41.264Z,14.74
2023-09-27T01:13:43.298Z,14.71
2023-09-27T01:14:46.093Z,14.69
2023-09-27T01:15:48.304Z,14.66
2023-09-27T01:16:50.300Z,14.65
2023-09-27T01:17:58.914Z,14.67
2023-09-27T01:19:04.179Z,14.69
2023-09-27T01:20:07.877Z,14.71
2023-09-27T01:21:10.066Z,14.69
2023-09-27T01:22:12.118Z,14.69
2023-09-27T01:23:14.142Z,14.68
2023-09-27T01:24:16.615Z,14.66
2023-09-27T01:25:18.632Z,14.67
2023-09-27T01:26:20.760Z,14.63
2023-09-27T01:27:23.312Z,14.64
2023-09-27T01:28:25.345Z,14.64
2023-09-27T01:29:27.421Z,14.66
2023-09-27T01:30:35.258Z,14.63
2023-09-27T01:31:37.887Z,14.62
2023-09-27T01:32:40.126Z,14.64
2023-09-27T01:33:42.224Z,14.63
2023-09-27T01:34:44.247Z,14.61
2023-09-27T01:35:46.519Z,14.62
2023-09-27T01:36:48.500Z,14.61
2023-09-27T01:37:50.509Z,14.58
2023-09-27T01:38:53.413Z,14.57
2023-09-27T01:39:56.274Z,14.56
2023-09-27T01:40:58.879Z,14.60
2023-09-27T01:42:00.918Z,14.60
2023-09-27T01:43:03.791Z,14.54
2023-09-27T01:44:06.080Z,14.56
2023-09-27T01:45:08.798Z,14.58
2023-09-27T01:46:10.807Z,14.56
2023-09-27T01:47:12.897Z,14.60
2023-09-27T01:48:14.990Z,14.55
2023-09-27T01:49:17.097Z,14.52
2023-09-27T01:50:24.894Z,14.50
2023-09-27T01:51:26.937Z,14.53
2023-09-27T01:52:28.989Z,14.55
2023-09-27T01:53:31.032Z,14.54
2023-09-27T01:54:33.071Z,14.57
2023-09-27T01:55:38.126Z,14.56
2023-09-27T01:56:40.160Z,14.51
2023-09-27T01:57:42.570Z,14.50
2023-09-27T01:58:44.589Z,14.49
2023-09-27T01:59:46.564Z,14.48
2023-09-27T02:00:48.783Z,14.47
2023-09-27T02:01:50.924Z,14.46
2023-09-27T02:02:57.043Z,14.48
2023-09-27T02:03:59.289Z,14.44
2023-09-27T02:05:01.370Z,14.40
2023-09-27T02:06:03.432Z,14.38
2023-09-27T02:07:05.437Z,14.38
2023-09-27T02:08:08.355Z,14.37
2023-09-27T02:09:10.588Z,14.38
2023-09-27T02:10:12.966Z,14.35
2023-09-27T02:11:16.092Z,14.36
2023-09-27T02:12:18.162Z,14.36
2023-09-27T02:13:20.167Z,14.36
2023-09-27T02:14:22.202Z,14.38
2023-09-27T02:15:24.230Z,14.38
2023-09-27T02:16:26.320Z,14.39
2023-09-27T02:17:28.473Z,14.39
2023-09-27T02:18:30.501Z,14.36
2023-09-27T02:19:32.534Z,14.35
2023-09-27T02:20:34.593Z,14.36
2023-09-27T02:21:36.623Z,14.35
2023-09-27T02:22:38.997Z,14.33
2023-09-27T02:23:41.033Z,14.33
2023-09-27T02:24:43.059Z,14.31
2023-09-27T02:25:45.115Z,14.29
2023-09-27T02:26:47.107Z,14.29
2023-09-27T02:27:49.148Z,14.33
2023-09-27T02:28:51.347Z,14.29
2023-09-27T02:29:53.595Z,14.26
2023-09-27T02:30:55.567Z,14.30
2023-09-27T02:31:57.638Z,14.29
2023-09-27T02:32:59.736Z,14.27
2023-09-27T02:34:01.965Z,14.26
2023-09-27T02:35:03.989Z,14.29
2023-09-27T02:36:06.132Z,14.27
2023-09-27T02:37:08.232Z,14.23
2023-09-27T02:38:10.513Z,14.23
2023-09-27T02:39:12.520Z,14.23
2023-09-27T02:40:15.199Z,14.21
2023-09-27T02:41:17.284Z,14.17
2023-09-27T02:42:19.299Z,14.18
2023-09-27T02:43:21.336Z,14.20
2023-09-27T02:44:23.411Z,14.17
2023-09-27T02:45:25.460Z,14.16
2023-09-27T02:46:27.946Z,14.15
2023-09-27T02:47:30.051Z,14.17
2023-09-27T02:48:32.217Z,14.13
2023-09-27T02:49:37.220Z,14.11
2023-09-27T02:50:39.215Z,14.12
2023-09-27T02:51:41.560Z,14.12
2023-09-27T02:52:45.168Z,14.12
2023-09-27T02:53:47.553Z,14.13
2023-09-27T02:54:49.569Z,14.14
2023-09-27T02:55:51.592Z,14.13
2023-09-27T02:56:53.814Z,14.09
2023-09-27T02:57:56.473Z,14.07
2023-09-27T02:58:58.661Z,14.06
2023-09-27T03:00:00.688Z,14.06
2023-09-27T03:01:02.689Z,14.05
2023-09-27T03:02:05.707Z,14.00
2023-09-27T03:03:09.719Z,14.01
2023-09-27T03:04:12.455Z,14.00
2023-09-27T03:05:14.564Z,14.01
2023-09-27T03:06:16.606Z,14.00
2023-09-27T03:07:18.776Z,14.02
2023-09-27T03:08:20.790Z,13.99
2023-09-27T03:09:22.826Z,13.97
2023-09-27T03:10:24.928Z,13.93
2023-09-27T03:11:27.149Z,13.91
2023-09-27T03:12:29.469Z,13.89
2023-09-27T03:13:31.478Z,13.88
2023-09-27T03:14:33.667Z,13.85
2023-09-27T03:15:35.777Z,13.85
2023-09-27T03:16:38.783Z,13.82
2023-09-27T03:17:44.108Z,13.80
2023-09-27T03:18:46.486Z,13.80
2023-09-27T03:19:49.142Z,13.79
2023-09-27T03:20:52.808Z,13.77
2023-09-27T03:21:54.854Z,13.78
2023-09-27T03:22:56.870Z,13.76
2023-09-27T03:23:58.851Z,13.74
2023-09-27T03:25:01.573Z,13.72
2023-09-27T03:26:04.730Z,13.71
2023-09-27T03:27:09.807Z,13.69
2023-09-27T03:28:11.940Z,13.68
2023-09-27T03:29:13.946Z,13.69
2023-09-27T03:30:16.148Z,13.68
2023-09-27T03:31:18.971Z,13.69
2023-09-27T03:32:21.290Z,13.68
2023-09-27T03:33:23.409Z,13.67
2023-09-27T03:34:25.397Z,13.67
2023-09-27T03:35:28.049Z,13.61
2023-09-27T03:36:30.144Z,13.64
2023-09-27T03:37:32.221Z,13.65
2023-09-27T03:38:34.292Z,13.64
2023-09-27T03:39:37.205Z,13.61
2023-09-27T03:40:41.361Z,13.61
2023-09-27T03:41:43.419Z,13.61
2023-09-27T03:42:45.967Z,13.62
2023-09-27T03:43:48.969Z,13.61
2023-09-27T03:44:51.439Z,13.56
2023-09-27T03:45:53.771Z,13.58
2023-09-27T03:46:55.886Z,13.57
2023-09-27T03:47:58.056Z,13.57
2023-09-27T03:49:00.072Z,13.52
2023-09-27T03:50:02.119Z,13.48
2023-09-27T03:51:04.106Z,13.53
2023-09-27T03:52:06.089Z,13.53
2023-09-27T03:53:08.144Z,13.51
2023-09-27T03:54:10.225Z,13.49
2023-09-27T03:55:12.623Z,13.54
2023-09-27T03:56:14.697Z,13.53
2023-09-27T03:57:16.672Z,13.52
2023-09-27T03:58:18.920Z,13.53
2023-09-27T03:59:20.954Z,13.52
2023-09-27T04:00:23.057Z,13.52
2023-09-27T04:01:25.051Z,13.52
2023-09-27T04:02:27.375Z,13.48
2023-09-27T04:03:29.478Z,13.44
2023-09-27T04:04:31.621Z,13.40
2023-09-27T04:05:33.701Z,13.40
2023-09-27T04:06:35.745Z,13.39
2023-09-27T04:07:37.741Z,13.38
2023-09-27T04:08:39.823Z,13.41
2023-09-27T04:09:41.882Z,13.40
2023-09-27T04:10:43.856Z,13.37
2023-09-27T04:11:45.861Z,13.36
2023-09-27T04:12:48.716Z,13.35
2023-09-27T04:13:50.924Z,13.35
2023-09-27T04:14:53.152Z,13.34
2023-09-27T04:15:55.154Z,13.36
2023-09-27T04:17:01.919Z,13.34
2023-09-27T04:18:05.034Z,13.33
2023-09-27T04:19:07.073Z,13.30
2023-09-27T04:20:15.714Z,13.28
2023-09-27T04:21:17.980Z,13.29
2023-09-27T04:22:20.085Z,13.26
2023-09-27T04:23:22.144Z,13.26
2023-09-27T04:24:24.543Z,13.25
2023-09-27T04:25:26.559Z,13.24
2023-09-27T04:26:28.629Z,13.25
2023-09-27T04:27:30.631Z,13.25
2023-09-27T04:28:35.806Z,13.21
2023-09-27T04:29:37.853Z,13.20
2023-09-27T04:30:39.947Z,13.20
2023-09-27T04:31:42.021Z,13.23
2023-09-27T04:32:44.782Z,13.18
2023-09-27T04:33:48.533Z,13.17
2023-09-27T04:34:51.143Z,13.18
2023-09-27T04:35:53.117Z,13.19
2023-09-27T04:36:55.222Z,13.21
2023-09-27T04:37:57.387Z,13.21
2023-09-27T04:38:59.443Z,13.22
2023-09-27T04:40:01.471Z,13.18
2023-09-27T04:41:03.732Z,13.20
2023-09-27T04:42:05.775Z,13.17
2023-09-27T04:43:07.777Z,13.20
2023-09-27T04:44:09.895Z,13.18
2023-09-27T04:45:15.090Z,13.21
2023-09-27T04:46:18.354Z,13.22
2023-09-27T04:47:20.416Z,13.19
2023-09-27T04:48:22.573Z,13.18
2023-09-27T04:49:24.581Z,13.21
2023-09-27T04:50:27.191Z,13.22
2023-09-27T04:51:29.281Z,13.22
2023-09-27T04:52:31.291Z,13.22
2023-09-27T04:53:36.317Z,13.22
2023-09-27T04:54:38.353Z,13.26
2023-09-27T04:55:40.359Z,13.25
2023-09-27T04:56:42.402Z,13.27
2023-09-27T04:57:44.410Z,13.29
2023-09-27T04:58:46.445Z,13.27
2023-09-27T04:59:48.487Z,13.31
2023-09-27T05:00:50.694Z,13.34
2023-09-27T05:01:53.179Z,13.33
2023-09-27T05:02:55.173Z,13.36
2023-09-27T05:03:57.229Z,13.37
2023-09-27T05:04:59.307Z,13.39
2023-09-27T05:06:01.320Z,13.42
2023-09-27T05:07:04.937Z,13.44
2023-09-27T05:08:07.066Z,13.44
2023-09-27T05:09:09.577Z,13.43
2023-09-27T05:10:12.235Z,13.44
2023-09-27T05:11:15.859Z,13.41
2023-09-27T05:12:18.155Z,13.40
2023-09-27T05:13:22.919Z,13.43
2023-09-27T05:14:24.949Z,13.40
2023-09-27T05:15:27.453Z,13.40
2023-09-27T05:16:31.693Z,13.37
2023-09-27T05:17:33.874Z,13.38
2023-09-27T05:18:35.904Z,13.41
2023-09-27T05:19:37.975Z,13.42
2023-09-27T05:20:40.184Z,13.45
2023-09-27T05:21:43.475Z,13.45
2023-09-27T05:22:45.555Z,13.47
2023-09-27T05:23:47.534Z,13.52
2023-09-27T05:24:49.538Z,13.49
2023-09-27T05:25:51.618Z,13.51
2023-09-27T05:26:53.633Z,13.52
2023-09-27T05:27:56.281Z,13.54
2023-09-27T05:28:58.345Z,13.58
2023-09-27T05:30:00.507Z,13.59
2023-09-27T05:31:02.606Z,13.63
2023-09-27T05:32:04.799Z,13.65
2023-09-27T05:33:07.095Z,13.66
2023-09-27T05:34:09.164Z,13.66
2023-09-27T05:35:11.353Z,13.67
2023-09-27T05:36:13.877Z,13.69
2023-09-27T05:37:15.953Z,13.70
2023-09-27T05:38:18.666Z,13.72
2023-09-27T05:39:20.836Z,13.77
2023-09-27T05:40:23.418Z,13.75
2023-09-27T05:41:26.344Z,13.77
2023-09-27T05:42:28.829Z,13.78
2023-09-27T05:43:31.084Z,13.80
2023-09-27T05:44:33.215Z,13.85
2023-09-27T05:45:36.109Z,13.83
2023-09-27T05:46:38.899Z,13.85
2023-09-27T05:47:41.144Z,13.87
2023-09-27T05:48:43.265Z,13.87
2023-09-27T05:49:45.535Z,13.88
2023-09-27T05:50:48.238Z,13.88
2023-09-27T05:51:50.312Z,13.94
2023-09-27T05:52:52.330Z,13.98
2023-09-27T05:53:54.342Z,14.01
2023-09-27T05:54:58.365Z,14.07
2023-09-27T05:56:04.373Z,14.08
2023-09-27T05:57:07.505Z,14.11
2023-09-27T05:58:09.519Z,14.15
2023-09-27T05:59:12.947Z,14.18
2023-09-27T06:00:28.494Z,14.21
2023-09-27T06:01:33.224Z,14.34
2023-09-27T06:02:35.348Z,14.47
2023-09-27T06:03:38.377Z,14.60
2023-09-27T06:04:40.593Z,14.75
2023-09-27T06:05:42.916Z,14.95
2023-09-27T06:06:46.558Z,15.04
2023-09-27T06:07:48.676Z,15.15
2023-09-27T06:08:50.861Z,15.19
2023-09-27T06:09:52.959Z,15.31
2023-09-27T06:10:54.933Z,15.49
2023-09-27T06:11:56.968Z,15.63
2023-09-27T06:12:59.208Z,15.78
2023-09-27T06:14:01.304Z,15.90
2023-09-27T06:15:03.368Z,15.87
2023-09-27T06:16:15.074Z,15.85
2023-09-27T06:17:18.548Z,15.80
2023-09-27T06:18:20.745Z,15.73
2023-09-27T06:19:22.823Z,15.68
2023-09-27T06:20:25.677Z,15.67
2023-09-27T06:21:27.747Z,15.68
2023-09-27T06:22:29.779Z,15.66
2023-09-27T06:23:31.776Z,15.64
2023-09-27T06:24:33.872Z,15.61
2023-09-27T06:25:36.563Z,15.62
2023-09-27T06:26:38.668Z,15.63
2023-09-27T06:27:40.972Z,15.65
2023-09-27T06:28:43.512Z,15.65
2023-09-27T06:29:45.560Z,15.63
2023-09-27T06:30:47.553Z,15.65
2023-09-27T06:31:50.810Z,15.66
2023-09-27T06:32:53.186Z,15.70
2023-09-27T06:33:55.334Z,15.75
2023-09-27T06:34:58.281Z,15.80
2023-09-27T06:36:00.929Z,15.84
2023-09-27T06:37:03.009Z,15.88
2023-09-27T06:38:05.064Z,15.90
2023-09-27T06:39:08.942Z,15.95
2023-09-27T06:40:17.622Z,16.00
2023-09-27T06:41:19.734Z,16.09
2023-09-27T06:42:24.590Z,16.13
2023-09-27T06:43:29.397Z,16.38
2023-09-27T06:44:35.192Z,16.93
2023-09-27T06:45:38.337Z,17.20
2023-09-27T06:46:48.634Z,17.13
2023-09-27T06:47:51.473Z,16.97
2023-09-27T06:48:54.167Z,16.91
2023-09-27T06:49:56.732Z,16.83
2023-09-27T06:50:58.756Z,16.85
2023-09-27T06:52:00.778Z,16.81
2023-09-27T06:53:20.924Z,16.81
2023-09-27T06:54:24.000Z,16.80
2023-09-27T06:55:25.973Z,16.77
2023-09-27T06:56:27.982Z,16.83
2023-09-27T06:57:29.998Z,16.92
2023-09-27T06:58:31.997Z,17.00
2023-09-27T06:59:34.049Z,17.07
2023-09-27T07:00:36.308Z,17.04
2023-09-27T07:01:38.448Z,17.00
2023-09-27T07:02:43.278Z,16.99
2023-09-27T07:03:45.403Z,17.04
2023-09-27T07:04:47.701Z,17.06
2023-09-27T07:05:49.712Z,17.10
2023-09-27T07:06:51.693Z,17.10
2023-09-27T07:07:54.861Z,17.15
2023-09-27T07:08:59.335Z,17.25
2023-09-27T07:10:01.475Z,17.34
2023-09-27T07:11:07.149Z,17.35
2023-09-27T07:12:09.611Z,17.35
2023-09-27T07:13:11.794Z,17.33
2023-09-27T07:14:13.931Z,17.28
2023-09-27T07:15:16.169Z,17.34
2023-09-27T07:16:28.588Z,17.35
2023-09-27T07:17:30.760Z,17.36
2023-09-27T07:18:32.967Z,17.40
2023-09-27T07:19:35.613Z,17.42
2023-09-27T07:20:38.089Z,17.44
2023-09-27T07:21:40.284Z,17.46
2023-09-27T07:22:43.711Z,17.47
2023-09-27T07:23:45.789Z,17.54
2023-09-27T07:24:47.812Z,17.53
2023-09-27T07:25:49.866Z,17.59
2023-09-27T07:26:54.041Z,17.61
2023-09-27T07:27:57.243Z,17.66
2023-09-27T07:28:59.253Z,17.68
2023-09-27T07:30:01.822Z,17.72
2023-09-27T07:31:03.986Z,17.76
2023-09-27T07:32:06.252Z,17.77
2023-09-27T07:33:10.573Z,17.82
2023-09-27T07:34:12.704Z,17.84
2023-09-27T07:35:18.109Z,17.87
2023-09-27T07:36:22.209Z,17.90
2023-09-27T07:37:24.298Z,17.95
2023-09-27T07:38:27.308Z,17.97
2023-09-27T07:39:29.328Z,18.03
2023-09-27T07:40:31.639Z,18.06
2023-09-27T07:41:36.444Z,18.10
2023-09-27T07:42:45.593Z,18.18
2023-09-27T07:43:48.964Z,18.29
2023-09-27T07:44:51.181Z,18.32
2023-09-27T07:45:54.222Z,18.40
2023-09-27T07:46:56.297Z,18.52
2023-09-27T07:47:58.535Z,18.58
2023-09-27T07:49:00.593Z,18.67
2023-09-27T07:50:02.724Z,18.70
2023-09-27T07:51:11.419Z,18.75
2023-09-27T07:52:13.475Z,18.91
2023-09-27T07:53:15.595Z,19.16
2023-09-27T07:54:17.781Z,19.28
2023-09-27T07:55:22.564Z,19.31
2023-09-27T07:56:27.660Z,19.33
2023-09-27T07:57:29.751Z,19.39
2023-09-27T07:58:31.781Z,19.37
2023-09-27T07:59:33.888Z,19.41
2023-09-27T08:00:36.726Z,19.46
2023-09-27T08:01:38.926Z,19.56
2023-09-27T08:02:40.986Z,19.56
2023-09-27T08:03:43.166Z,19.58
2023-09-27T08:04:45.281Z,19.59
2023-09-27T08:05:47.478Z,19.61
2023-09-27T08:06:49.592Z,19.65
2023-09-27T08:07:52.238Z,19.70
2023-09-27T08:08:55.748Z,19.73
2023-09-27T08:10:15.310Z,19.75
2023-09-27T08:11:19.820Z,19.79
2023-09-27T08:12:21.815Z,19.84
2023-09-27T08:13:23.805Z,19.87
2023-09-27T08:14:27.463Z,19.91
2023-09-27T08:15:29.745Z,19.94
2023-09-27T08:16:31.809Z,19.97
2023-09-27T08:17:34.178Z,20.03
2023-09-27T08:18:38.681Z,20.04
2023-09-27T08:19:40.778Z,20.06
2023-09-27T08:20:42.761Z,20.13
2023-09-27T08:21:44.741Z,20.19
2023-09-27T08:22:46.808Z,20.25
2023-09-27T08:23:48.886Z,20.29
2023-09-27T08:24:50.973Z,20.38
2023-09-27T08:25:56.859Z,20.47
2023-09-27T08:26:59.627Z,20.49
2023-09-27T08:28:02.952Z,20.53
2023-09-27T08:29:07.273Z,20.61
2023-09-27T08:30:10.542Z,20.65
2023-09-27T08:31:12.601Z,20.69
2023-09-27T08:32:14.748Z,20.71
2023-09-27T08:33:16.805Z,20.75
2023-09-27T08:34:19.530Z,20.81
2023-09-27T08:35:21.648Z,20.91
2023-09-27T08:36:23.636Z,21.01
2023-09-27T08:37:25.651Z,21.01
2023-09-27T08:38:27.863Z,21.08
2023-09-27T08:39:30.283Z,21.12
2023-09-27T08:40:32.517Z,21.17
2023-09-27T08:41:34.574Z,21.23
2023-09-27T08:42:36.682Z,21.25
2023-09-27T08:43:38.655Z,21.32
2023-09-27T08:44:40.731Z,21.35
2023-09-27T08:45:43.654Z,21.42
2023-09-27T08:46:45.704Z,21.50
2023-09-27T08:47:47.895Z,21.56
2023-09-27T08:48:50.015Z,21.61
2023-09-27T08:49:52.013Z,21.70
2023-09-27T08:50:56.209Z,21.72
2023-09-27T08:51:59.060Z,21.74
2023-09-27T08:53:01.190Z,21.81
2023-09-27T08:54:03.479Z,21.92
2023-09-27T08:55:07.893Z,21.96
2023-09-27T08:56:16.093Z,22.03
2023-09-27T08:57:18.583Z,22.06
2023-09-27T08:58:20.574Z,22.16
2023-09-27T08:59:22.687Z,22.25
2023-09-27T09:00:28.146Z,22.31
2023-09-27T09:01:34.316Z,22.40
2023-09-27T09:02:38.715Z,22.61
2023-09-27T09:03:42.444Z,22.73
2023-09-27T09:04:45.212Z,22.85
2023-09-27T09:05:49.375Z,23.01
2023-09-27T09:06:51.968Z,23.12
2023-09-27T09:07:54.035Z,23.22
2023-09-27T09:08:56.338Z,23.30
2023-09-27T09:09:58.562Z,23.34
2023-09-27T09:11:00.835Z,23.43
2023-09-27T09:12:10.190Z,23.52
2023-09-27T09:13:12.451Z,23.57
2023-09-27T09:14:18.369Z,23.61
2023-09-27T09:15:48.422Z,23.71
2023-09-27T09:16:54.670Z,23.82
2023-09-27T09:17:59.303Z,23.87
2023-09-27T09:19:41.798Z,23.97
2023-09-27T09:21:01.078Z,24.04
2023-09-27T09:22:05.833Z,24.10
2023-09-27T09:23:13.919Z,24.25
2023-09-27T09:24:22.221Z,24.32
2023-09-27T09:25:27.721Z,24.40
2023-09-27T09:26:31.203Z,24.46
2023-09-27T09:27:34.240Z,24.58
2023-09-27T09:28:37.724Z,24.62
2023-09-27T09:29:49.707Z,24.93
2023-09-27T09:30:51.710Z,25.02
2023-09-27T09:31:57.826Z,25.20
2023-09-27T09:32:59.890Z,25.18
2023-09-27T09:34:09.269Z,25.22
2023-09-27T09:35:11.367Z,25.30
2023-09-27T09:36:16.062Z,25.35
2023-09-27T09:37:27.026Z,25.39
2023-09-27T09:38:34.765Z,25.40
2023-09-27T09:39:36.876Z,25.45
2023-09-27T09:41:01.620Z,25.48
2023-09-27T09:42:05.151Z,25.36
2023-09-27T09:43:07.179Z,25.33
2023-09-27T09:44:20.636Z,25.48
2023-09-27T09:45:23.009Z,25.48
2023-09-27T09:46:25.661Z,25.54
2023-09-27T09:47:29.442Z,25.60
2023-09-27T09:48:32.838Z,25.63
2023-09-27T09:49:36.304Z,25.57
2023-09-27T09:50:38.386Z,25.66
2023-09-27T09:51:40.969Z,25.74
2023-09-27T09:52:42.980Z,25.75
2023-09-27T09:53:45.082Z,25.74
2023-09-27T09:54:57.188Z,25.81
2023-09-27T09:57:21.915Z,25.86
2023-09-27T09:58:43.964Z,25.93
2023-09-27T09:59:53.993Z,25.97
2023-09-27T10:00:56.035Z,26.01
2023-09-27T10:01:58.879Z,26.02
2023-09-27T10:03:03.251Z,25.99
2023-09-27T10:04:05.999Z,26.06
2023-09-27T10:05:09.225Z,26.07
2023-09-27T10:06:11.958Z,26.05
2023-09-27T10:07:15.367Z,26.13
2023-09-27T10:08:20.152Z,26.15
2023-09-27T10:09:25.715Z,26.24
2023-09-27T10:10:28.289Z,26.29
2023-09-27T10:11:30.457Z,26.42
2023-09-27T10:12:32.470Z,26.33
2023-09-27T10:13:36.380Z,26.47
2023-09-27T10:14:38.823Z,26.56
2023-09-27T10:15:41.917Z,26.60
2023-09-27T10:16:44.780Z,26.69
2023-09-27T10:17:47.025Z,26.78
2023-09-27T10:18:49.039Z,26.81
2023-09-27T10:20:16.209Z,26.84
2023-09-27T10:21:18.234Z,27.05
2023-09-27T10:22:25.533Z,27.09
2023-09-27T10:23:27.581Z,27.16
2023-09-27T10:24:29.754Z,27.28
2023-09-27T10:25:32.189Z,27.32
2023-09-27T10:26:34.591Z,27.43
2023-09-27T10:28:02.541Z,27.46
2023-09-27T10:29:23.026Z,27.46
2023-09-27T10:30:25.073Z,27.47
2023-09-27T10:31:27.120Z,27.56
2023-09-27T10:32:29.431Z,27.56
2023-09-27T10:33:31.957Z,27.53
2023-09-27T10:34:39.625Z,27.47
2023-09-27T10:35:43.173Z,27.52
2023-09-27T10:36:55.037Z,27.57
2023-09-27T10:38:05.735Z,27.59
2023-09-27T10:39:07.811Z,27.62
2023-09-27T10:40:22.821Z,27.59
2023-09-27T10:41:34.070Z,27.69
2023-09-27T10:42:44.682Z,27.62
2023-09-27T10:43:47.452Z,27.57
2023-09-27T10:44:51.537Z,27.55
2023-09-27T10:45:59.547Z,27.58
2023-09-27T10:47:05.538Z,27.64
2023-09-27T10:48:20.489Z,27.65
2023-09-27T10:49:23.262Z,27.61
2023-09-27T10:50:29.300Z,27.62
2023-09-27T10:51:31.339Z,27.70
2023-09-27T10:52:33.674Z,27.73
2023-09-27T10:53:35.738Z,27.90
2023-09-27T10:54:37.819Z,28.06
2023-09-27T10:55:41.393Z,28.03
2023-09-27T10:56:46.681Z,28.28
2023-09-27T10:57:48.677Z,28.47
2023-09-27T10:58:51.028Z,28.67
2023-09-27T10:59:53.559Z,28.87
2023-09-27T11:00:56.748Z,29.37
2023-09-27T11:02:00.596Z,29.63
2023-09-27T11:03:16.966Z,29.88
2023-09-27T11:04:21.867Z,30.31
2023-09-27T11:05:27.235Z,30.57
2023-09-27T11:06:29.885Z,30.78
2023-09-27T11:07:44.758Z,31.06
2023-09-27T11:08:46.878Z,31.24
2023-09-27T11:09:49.549Z,31.18
2023-09-27T11:10:54.214Z,31.52
2023-09-27T11:11:56.550Z,31.77
2023-09-27T11:13:18.301Z,32.00
2023-09-27T11:14:30.439Z,32.33
2023-09-27T11:15:32.634Z,32.54
2023-09-27T11:16:34.705Z,32.54
2023-09-27T11:17:36.888Z,32.33
2023-09-27T11:18:46.259Z,32.12
2023-09-27T11:19:48.376Z,32.06
2023-09-27T11:20:50.523Z,32.07
2023-09-27T11:21:52.611Z,32.10
2023-09-27T11:22:58.841Z,32.12
2023-09-27T11:24:04.579Z,31.98
2023-09-27T11:25:26.644Z,31.82
2023-09-27T11:26:30.279Z,31.77
2023-09-27T11:27:32.369Z,31.54
2023-09-27T11:28:34.441Z,31.43
2023-09-27T11:29:36.660Z,31.36
2023-09-27T11:30:38.898Z,31.14
2023-09-27T11:31:40.887Z,31.10
2023-09-27T11:32:52.747Z,30.89
2023-09-27T11:33:55.349Z,30.71
2023-09-27T11:34:58.284Z,30.72
2023-09-27T11:36:05.213Z,30.64
2023-09-27T11:37:07.904Z,30.55
2023-09-27T11:38:11.246Z,30.61
2023-09-27T11:39:15.056Z,30.68
2023-09-27T11:40:17.289Z,30.91
2023-09-27T11:41:19.882Z,30.88
2023-09-27T11:42:25.329Z,30.89
2023-09-27T11:43:33.218Z,30.96
2023-09-27T11:44:35.194Z,31.14
2023-09-27T11:45:50.143Z,31.21
2023-09-27T11:47:03.635Z,31.01
2023-09-27T11:48:06.615Z,31.08
2023-09-27T11:49:11.829Z,30.95
2023-09-27T11:50:17.350Z,30.88
2023-09-27T11:51:19.471Z,30.81
2023-09-27T11:52:21.496Z,30.59
2023-09-27T11:53:23.589Z,30.35
2023-09-27T11:54:26.528Z,30.37
2023-09-27T11:55:28.544Z,30.22
2023-09-27T11:56:30.726Z,30.05
2023-09-27T11:57:32.750Z,29.87
2023-09-27T11:58:34.728Z,29.74
2023-09-27T11:59:38.737Z,29.76
2023-09-27T12:00:40.897Z,29.88
2023-09-27T12:01:42.973Z,29.82
2023-09-27T12:02:56.494Z,29.80
2023-09-27T12:04:00.805Z,29.78
2023-09-27T12:05:06.268Z,29.61
2023-09-27T12:06:08.594Z,29.50
2023-09-27T12:07:11.939Z,29.48
2023-09-27T12:08:14.069Z,29.51
2023-09-27T12:09:16.152Z,29.38
2023-09-27T12:10:18.190Z,29.28
2023-09-27T12:11:20.205Z,29.30
2023-09-27T12:12:22.473Z,29.27
2023-09-27T12:13:24.474Z,29.21
2023-09-27T12:14:26.494Z,29.17
2023-09-27T12:15:29.377Z,29.24
2023-09-27T12:16:31.440Z,29.18
2023-09-27T12:17:33.621Z,29.15
2023-09-27T12:18:35.780Z,29.04
2023-09-27T12:19:37.951Z,28.96
2023-09-27T12:20:43.042Z,28.99
2023-09-27T12:21:46.652Z,28.83
2023-09-27T12:22:48.876Z,28.75
2023-09-27T12:23:50.939Z,28.78
2023-09-27T12:24:53.030Z,28.72
2023-09-27T12:25:56.765Z,28.65
2023-09-27T12:26:58.951Z,28.69
2023-09-27T12:28:01.005Z,28.60
2023-09-27T12:29:04.180Z,28.41
2023-09-27T12:30:06.710Z,28.45
2023-09-27T12:31:09.060Z,28.41
2023-09-27T12:32:11.506Z,28.41
2023-09-27T12:33:13.869Z,28.31
2023-09-27T12:34:16.010Z,28.31
2023-09-27T12:35:18.890Z,28.24
2023-09-27T12:36:20.918Z,28.12
2023-09-27T12:37:23.243Z,28.05
2023-09-27T12:38:26.023Z,28.09
2023-09-27T12:39:28.071Z,27.98
2023-09-27T12:40:32.463Z,27.96
2023-09-27T12:41:35.069Z,27.92
2023-09-27T12:42:37.172Z,27.92
2023-09-27T12:43:40.992Z,27.79
2023-09-27T12:44:43.019Z,27.78
2023-09-27T12:45:45.059Z,27.70
2023-09-27T12:46:47.100Z,27.63
2023-09-27T12:47:49.236Z,27.63
2023-09-27T12:48:51.617Z,27.55
2023-09-27T12:49:53.812Z,27.56
2023-09-27T12:50:56.988Z,27.52
2023-09-27T12:51:59.054Z,27.48
2023-09-27T12:53:02.364Z,27.48
2023-09-27T12:54:04.406Z,27.47
2023-09-27T12:55:06.588Z,27.49
2023-09-27T12:56:08.838Z,27.36
2023-09-27T12:57:10.911Z,27.35
2023-09-27T12:58:13.756Z,27.31
2023-09-27T12:59:15.804Z,27.35
2023-09-27T13:00:18.514Z,27.31
2023-09-27T13:01:20.673Z,27.32
2023-09-27T13:02:22.754Z,27.29
2023-09-27T13:03:24.837Z,27.31
2023-09-27T13:04:27.213Z,27.30
2023-09-27T13:05:29.301Z,27.30
2023-09-27T13:06:32.114Z,27.22
2023-09-27T13:07:34.113Z,27.17
2023-09-27T13:08:36.188Z,27.14
2023-09-27T13:09:38.782Z,27.14
2023-09-27T13:10:40.777Z,27.08
2023-09-27T13:11:43.017Z,27.08
2023-09-27T13:12:45.164Z,27.03
2023-09-27T13:13:47.198Z,27.03
2023-09-27T13:14:49.209Z,26.94
2023-09-27T13:15:51.311Z,26.86
2023-09-27T13:16:53.366Z,26.88
2023-09-27T13:17:55.400Z,26.84
2023-09-27T13:18:57.578Z,26.76
2023-09-27T13:19:59.833Z,26.78
2023-09-27T13:21:02.051Z,26.74
2023-09-27T13:22:04.051Z,26.75
2023-09-27T13:23:06.102Z,26.66
2023-09-27T13:24:09.427Z,26.60
2023-09-27T13:25:14.597Z,26.58
2023-09-27T13:26:16.728Z,26.57
2023-09-27T13:27:18.820Z,26.54
2023-09-27T13:28:21.358Z,26.45
2023-09-27T13:29:23.423Z,26.42
2023-09-27T13:30:35.556Z,26.42
2023-09-27T13:31:38.793Z,26.37
2023-09-27T13:32:40.904Z,26.35
2023-09-27T13:33:46.574Z,26.36
2023-09-27T13:34:51.300Z,26.31
2023-09-27T13:35:53.376Z,26.28
2023-09-27T13:36:55.687Z,26.25
2023-09-27T13:37:57.726Z,26.28